KBAM

Battle Mountain Airport

Battle Mountain, Nevada, USA
METAR KBAM 160655Z AUTO 15004KT 10SM CLR M01/M05 A3017 RMK AO1
Observed Flight Rules
Dec-16 @ 06:55 UTC (14 minutes ago) Visual Flight Rules
Wind Visibility Clouds
150° at 4 knots 10 miles
  • Clear skies
Temperatures Readings
Current -1°C / 30°F
Dewpoint -5°C / 23°F
Humidity 75%
Altimeter 30.17" Hg
Pressure 1022 hPa
METAR KBAM 160655Z AUTO 15004KT 10SM CLR M01/M05 A3017 RMK AO1
Observed Flight Rules
Dec-16 @ 06:55 UTC
(14 minutes ago)
VFR
Wind Visibility
150° at 4 knots 10 miles
Clouds
  • Clear skies
Temperature Dewpoint
-1°C / 30°F -5°C / 23°F
Humidity Altimeter Pressure
75% 30.17" Hg 1022 hPa